createdAt,value
2022-09-14T00:01:29.246Z,66.60
2022-09-14T00:04:16.027Z,66.60
2022-09-14T00:06:43.302Z,68.50
2022-09-14T00:09:17.178Z,69.70
2022-09-14T00:11:43.952Z,69.70
2022-09-14T00:14:10.796Z,69.60
2022-09-14T00:16:39.543Z,68.90
2022-09-14T00:19:13.289Z,68.20
2022-09-14T00:21:42.449Z,67.70
2022-09-14T00:24:11.169Z,67.20
2022-09-14T00:26:38.422Z,67.10
2022-09-14T00:29:05.632Z,67.60
2022-09-14T00:31:35.426Z,67.00
2022-09-14T00:34:03.130Z,66.90
2022-09-14T00:36:31.253Z,66.90
2022-09-14T00:38:58.400Z,67.40
2022-09-14T00:41:28.205Z,67.60
2022-09-14T00:44:12.719Z,68.10
2022-09-14T00:46:44.831Z,67.60
2022-09-14T00:49:37.814Z,67.10
2022-09-14T00:52:19.651Z,67.70
2022-09-14T00:54:53.074Z,67.60
2022-09-14T00:57:21.366Z,67.30
2022-09-14T00:59:51.434Z,67.50
2022-09-14T01:02:21.428Z,67.70
2022-09-14T01:04:48.826Z,68.00
2022-09-14T01:07:38.253Z,67.70
2022-09-14T01:10:20.024Z,67.90
2022-09-14T01:12:55.140Z,68.00
2022-09-14T01:15:42.886Z,68.10
2022-09-14T01:18:24.038Z,68.10
2022-09-14T01:21:04.973Z,67.90
2022-09-14T01:23:50.403Z,69.00
2022-09-14T01:26:51.207Z,68.80
2022-09-14T01:29:27.803Z,69.10
2022-09-14T01:31:59.552Z,69.70
2022-09-14T01:34:34.472Z,70.10
2022-09-14T01:37:31.313Z,70.60
2022-09-14T01:40:27.195Z,71.10
2022-09-14T01:43:15.104Z,71.40
2022-09-14T01:45:47.784Z,71.10
2022-09-14T01:48:16.836Z,70.90
2022-09-14T01:50:50.624Z,71.00
2022-09-14T01:53:23.604Z,71.60
2022-09-14T01:56:21.930Z,72.60
2022-09-14T01:59:02.560Z,74.00
2022-09-14T02:01:40.150Z,74.10
2022-09-14T02:04:11.751Z,74.30
2022-09-14T02:06:43.195Z,74.80
2022-09-14T02:09:12.784Z,75.00
2022-09-14T02:11:40.581Z,74.60
2022-09-14T02:14:07.504Z,74.50
2022-09-14T02:16:34.669Z,74.20
2022-09-14T02:19:01.831Z,74.20
2022-09-14T02:21:31.618Z,74.00
2022-09-14T02:24:02.565Z,74.30
2022-09-14T02:26:29.755Z,75.00
2022-09-14T02:28:57.248Z,74.70
2022-09-14T02:31:23.939Z,74.50
2022-09-14T02:34:22.134Z,74.60
2022-09-14T02:37:30.048Z,74.40
2022-09-14T02:40:25.435Z,73.70
2022-09-14T02:43:01.189Z,74.60
2022-09-14T02:46:03.931Z,75.20
2022-09-14T02:48:39.817Z,76.00
2022-09-14T02:51:57.133Z,76.30
2022-09-14T02:54:54.544Z,76.80
2022-09-14T02:57:21.271Z,76.50
2022-09-14T02:59:47.975Z,76.20
2022-09-14T03:02:14.792Z,76.30
2022-09-14T03:04:42.256Z,75.90
2022-09-14T03:07:08.966Z,76.10
2022-09-14T03:09:35.704Z,76.00
2022-09-14T03:12:02.576Z,76.40
2022-09-14T03:14:29.248Z,75.70
2022-09-14T03:16:55.964Z,74.90
2022-09-14T03:19:22.653Z,74.50
2022-09-14T03:21:49.405Z,74.00
2022-09-14T03:24:16.069Z,74.30
2022-09-14T03:26:42.999Z,74.50
2022-09-14T03:29:09.758Z,74.60
2022-09-14T03:31:37.075Z,74.60
2022-09-14T03:34:03.952Z,74.40
2022-09-14T03:36:32.060Z,74.40
2022-09-14T03:39:01.904Z,74.60
2022-09-14T03:41:29.086Z,75.00
2022-09-14T03:43:55.826Z,75.50
2022-09-14T03:46:24.504Z,76.90
2022-09-14T03:48:51.687Z,77.10
2022-09-14T03:51:18.720Z,78.50
2022-09-14T03:53:45.876Z,79.10
2022-09-14T03:56:16.264Z,79.60
2022-09-14T03:58:44.998Z,79.80
2022-09-14T04:01:14.753Z,79.60
2022-09-14T04:03:42.245Z,79.10
2022-09-14T04:06:10.086Z,79.20
2022-09-14T04:08:38.937Z,79.70
2022-09-14T04:11:26.021Z,79.10
2022-09-14T04:13:53.375Z,79.30
2022-09-14T04:16:21.227Z,79.00
2022-09-14T04:18:48.512Z,80.90
2022-09-14T04:21:17.700Z,82.50
2022-09-14T04:24:13.216Z,82.10
2022-09-14T04:26:32.661Z,81.90
2022-09-14T04:28:59.438Z,81.30
2022-09-14T04:31:26.379Z,80.70
2022-09-14T04:33:56.202Z,80.60
2022-09-14T04:36:28.342Z,81.50
2022-09-14T04:38:57.075Z,82.00
2022-09-14T04:41:24.564Z,83.60
2022-09-14T04:43:52.507Z,84.50
2022-09-14T04:46:21.947Z,85.10
2022-09-14T04:48:50.012Z,85.30
2022-09-14T04:51:19.724Z,85.40
2022-09-14T04:53:50.028Z,86.10
2022-09-14T04:56:17.557Z,87.10
2022-09-14T04:58:51.256Z,87.10
2022-09-14T05:01:24.222Z,87.20
2022-09-14T05:03:52.340Z,87.50
2022-09-14T05:06:21.518Z,87.80
2022-09-14T05:08:49.383Z,87.50
2022-09-14T05:11:24.400Z,87.20
2022-09-14T05:13:51.389Z,87.30
2022-09-14T05:16:20.758Z,87.30
2022-09-14T05:18:48.454Z,87.00
2022-09-14T05:21:17.740Z,86.90
2022-09-14T05:23:45.319Z,86.60
2022-09-14T05:26:12.847Z,86.80
2022-09-14T05:28:39.904Z,86.80
2022-09-14T05:31:09.080Z,87.10
2022-09-14T05:33:36.401Z,87.10
2022-09-14T05:36:05.794Z,86.10
2022-09-14T05:38:34.331Z,85.80
2022-09-14T05:41:01.521Z,86.00
2022-09-14T05:43:29.464Z,85.70
2022-09-14T05:45:56.508Z,85.30
2022-09-14T05:48:23.340Z,86.00
2022-09-14T05:51:00.716Z,85.40
2022-09-14T05:53:27.920Z,85.30
2022-09-14T05:56:07.028Z,85.00
2022-09-14T05:58:34.989Z,84.50
2022-09-14T06:01:16.519Z,83.80
2022-09-14T06:03:44.438Z,83.00
2022-09-14T06:06:13.232Z,82.60
2022-09-14T06:08:40.526Z,82.30
2022-09-14T06:11:10.109Z,81.10
2022-09-14T06:13:37.668Z,80.40
2022-09-14T06:16:13.067Z,80.00
2022-09-14T06:18:41.889Z,79.50
2022-09-14T06:21:10.579Z,79.20
2022-09-14T06:23:37.668Z,78.70
2022-09-14T06:26:05.813Z,78.20
2022-09-14T06:28:33.651Z,78.70
2022-09-14T06:31:01.195Z,78.40
2022-09-14T06:33:27.857Z,78.90
2022-09-14T06:36:09.343Z,79.20
2022-09-14T06:38:36.422Z,79.60
2022-09-14T06:41:06.386Z,79.90
2022-09-14T06:43:34.830Z,79.70
2022-09-14T06:46:07.486Z,79.40
2022-09-14T06:48:40.351Z,78.20
2022-09-14T06:51:16.850Z,79.00
2022-09-14T06:53:44.850Z,79.30
2022-09-14T06:56:12.208Z,79.40
2022-09-14T06:58:39.379Z,79.20
2022-09-14T07:01:08.216Z,79.20
2022-09-14T07:03:37.020Z,78.30
2022-09-14T07:06:09.426Z,78.30
2022-09-14T07:08:37.559Z,77.90
2022-09-14T07:11:05.701Z,76.10
2022-09-14T07:13:32.804Z,75.30
2022-09-14T07:15:59.717Z,73.60
2022-09-14T07:18:32.817Z,72.80
2022-09-14T07:21:11.114Z,71.40
2022-09-14T07:23:39.945Z,71.10
2022-09-14T07:26:15.546Z,70.40
2022-09-14T07:28:44.331Z,69.40
2022-09-14T07:31:17.862Z,68.60
2022-09-14T07:33:45.619Z,67.30
2022-09-14T07:36:13.098Z,66.60
2022-09-14T07:38:55.317Z,65.40
2022-09-14T07:41:24.302Z,64.90
2022-09-14T07:43:52.687Z,64.00
2022-09-14T07:46:21.154Z,63.20
2022-09-14T07:48:49.171Z,62.80
2022-09-14T07:51:16.309Z,62.60
2022-09-14T07:53:43.603Z,62.00
2022-09-14T07:56:12.216Z,61.10
2022-09-14T07:58:39.155Z,61.80
2022-09-14T08:01:09.287Z,61.30
2022-09-14T08:03:43.466Z,60.10
2022-09-14T08:06:13.332Z,59.60
2022-09-14T08:08:42.847Z,58.90
2022-09-14T08:11:13.274Z,57.40
2022-09-14T08:13:43.166Z,56.90
2022-09-14T08:16:10.559Z,56.60
2022-09-14T08:18:38.212Z,54.50
2022-09-14T08:21:07.987Z,54.10
2022-09-14T08:23:35.555Z,53.40
2022-09-14T08:26:04.490Z,52.70
2022-09-14T08:28:31.282Z,52.00
2022-09-14T08:31:22.646Z,51.10
2022-09-14T08:33:52.180Z,49.90
2022-09-14T08:36:21.088Z,49.30
2022-09-14T08:38:47.926Z,49.20
2022-09-14T08:41:23.443Z,49.00
2022-09-14T08:43:50.307Z,49.40
2022-09-14T08:46:31.430Z,48.90
2022-09-14T08:49:01.361Z,48.30
2022-09-14T08:51:28.810Z,48.60
2022-09-14T08:53:57.853Z,48.80
2022-09-14T08:56:28.562Z,49.30
2022-09-14T08:59:26.795Z,49.40
2022-09-14T09:01:59.696Z,49.60
2022-09-14T09:04:51.771Z,50.30
2022-09-14T09:07:46.325Z,49.60
2022-09-14T09:10:13.912Z,49.40
2022-09-14T09:12:47.006Z,49.70
2022-09-14T09:15:22.663Z,49.60
2022-09-14T09:17:56.805Z,50.00
2022-09-14T09:20:32.797Z,49.60
2022-09-14T09:23:17.076Z,49.10
2022-09-14T09:26:05.094Z,49.20
2022-09-14T09:28:32.435Z,48.10
2022-09-14T09:31:05.079Z,48.10
2022-09-14T09:33:32.402Z,47.20
2022-09-14T09:36:00.083Z,46.00
2022-09-14T09:38:28.771Z,45.20
2022-09-14T09:40:58.936Z,45.10
2022-09-14T09:43:45.679Z,44.60
2022-09-14T09:46:12.789Z,42.80
2022-09-14T09:48:41.104Z,42.80
2022-09-14T09:51:34.680Z,42.60
2022-09-14T09:54:14.057Z,42.20
2022-09-14T09:56:58.860Z,42.50
2022-09-14T09:59:35.272Z,42.30
2022-09-14T10:02:30.732Z,42.10
2022-09-14T10:05:07.270Z,40.80
2022-09-14T10:07:56.114Z,40.00
2022-09-14T10:10:43.323Z,39.60
2022-09-14T10:13:38.328Z,40.00
2022-09-14T10:16:17.958Z,40.40
2022-09-14T10:18:49.253Z,40.70
2022-09-14T10:21:25.900Z,40.60
2022-09-14T10:24:20.176Z,40.60
2022-09-14T10:26:46.871Z,40.70
2022-09-14T10:29:42.272Z,40.80
2022-09-14T10:32:25.477Z,40.40
2022-09-14T10:34:52.606Z,41.30
2022-09-14T10:37:37.430Z,41.30
2022-09-14T10:40:20.464Z,41.50
2022-09-14T10:42:53.533Z,42.10
2022-09-14T10:45:23.956Z,42.30
2022-09-14T10:48:10.897Z,42.70
2022-09-14T10:50:54.662Z,42.80
2022-09-14T10:53:42.448Z,43.30
2022-09-14T10:56:23.664Z,43.70
2022-09-14T10:59:05.433Z,44.10
2022-09-14T11:02:01.436Z,44.90
2022-09-14T11:04:28.196Z,44.00
2022-09-14T11:07:32.171Z,43.30
2022-09-14T11:10:17.854Z,43.70
2022-09-14T11:13:21.572Z,43.90
2022-09-14T11:16:26.822Z,43.70
2022-09-14T11:19:07.787Z,44.10
2022-09-14T11:22:10.880Z,44.50
2022-09-14T11:24:46.977Z,44.50
2022-09-14T11:27:25.855Z,45.00
2022-09-14T11:30:05.157Z,45.40
2022-09-14T11:32:42.597Z,43.00
2022-09-14T11:35:39.933Z,44.40
2022-09-14T11:38:13.022Z,43.50
2022-09-14T11:40:52.612Z,43.70
2022-09-14T11:43:43.946Z,43.50
2022-09-14T11:46:15.921Z,43.20
2022-09-14T11:48:58.937Z,42.70
2022-09-14T11:51:33.075Z,43.00
2022-09-14T11:53:59.952Z,42.10
2022-09-14T11:56:32.170Z,42.30
2022-09-14T11:59:06.612Z,42.30
2022-09-14T12:01:38.487Z,41.60
2022-09-14T12:04:11.315Z,41.50
2022-09-14T12:06:38.020Z,41.60
2022-09-14T12:09:24.463Z,40.90
2022-09-14T12:11:52.992Z,41.10
2022-09-14T12:14:28.820Z,41.10
2022-09-14T12:17:38.338Z,41.00
2022-09-14T12:20:29.630Z,40.90
2022-09-14T12:23:29.719Z,41.20
2022-09-14T12:26:11.651Z,41.80
2022-09-14T12:28:48.026Z,42.10
2022-09-14T12:31:59.366Z,42.50
2022-09-14T12:34:28.086Z,42.70
2022-09-14T12:36:57.659Z,42.60
2022-09-14T12:39:27.159Z,42.10
2022-09-14T12:41:53.797Z,42.20
2022-09-14T12:44:32.628Z,41.60
2022-09-14T12:47:25.521Z,41.90
2022-09-14T12:50:06.002Z,41.90
2022-09-14T12:52:57.198Z,41.80
2022-09-14T12:55:42.408Z,41.40
2022-09-14T12:58:37.333Z,41.20
2022-09-14T13:01:34.687Z,41.60
2022-09-14T13:04:03.288Z,41.90
2022-09-14T13:06:43.205Z,42.30
2022-09-14T13:09:20.838Z,43.10
2022-09-14T13:11:57.841Z,43.00
2022-09-14T13:14:46.985Z,43.20
2022-09-14T13:17:15.201Z,44.10
2022-09-14T13:19:42.757Z,43.70
2022-09-14T13:22:21.518Z,43.30
2022-09-14T13:24:49.019Z,43.30
2022-09-14T13:27:21.218Z,43.10
2022-09-14T13:29:49.014Z,42.60
2022-09-14T13:32:20.785Z,42.20
2022-09-14T13:34:47.868Z,42.20
2022-09-14T13:37:15.671Z,42.00
2022-09-14T13:39:51.058Z,42.40
2022-09-14T13:42:18.511Z,42.10
2022-09-14T13:44:46.703Z,41.70
2022-09-14T13:47:15.839Z,42.50
2022-09-14T13:49:45.094Z,42.20
2022-09-14T13:52:31.064Z,42.60
2022-09-14T13:55:20.364Z,42.50
2022-09-14T13:58:16.366Z,42.40
2022-09-14T14:00:47.918Z,42.40
2022-09-14T14:03:26.442Z,42.60
2022-09-14T14:05:53.270Z,42.70
2022-09-14T14:08:31.751Z,40.50
2022-09-14T14:11:00.367Z,39.90
2022-09-14T14:13:32.575Z,43.00
2022-09-14T14:16:17.681Z,45.90
2022-09-14T14:18:50.892Z,48.90
2022-09-14T14:21:29.711Z,50.00
2022-09-14T14:24:26.119Z,50.40
2022-09-14T14:26:56.646Z,51.20
2022-09-14T14:29:25.688Z,51.60
2022-09-14T14:31:55.139Z,54.10
2022-09-14T14:34:31.169Z,59.50
2022-09-14T14:36:57.901Z,66.00
2022-09-14T14:39:25.816Z,71.30
2022-09-14T14:41:52.991Z,78.10
2022-09-14T14:44:28.129Z,81.50
2022-09-14T14:46:56.336Z,83.10
2022-09-14T14:49:23.818Z,84.80
2022-09-14T14:51:50.618Z,85.80
2022-09-14T14:54:18.843Z,90.10
2022-09-14T14:56:47.476Z,91.20
2022-09-14T14:59:20.225Z,91.80
2022-09-14T15:01:48.283Z,92.60
2022-09-14T15:04:15.478Z,93.50
2022-09-14T15:06:42.358Z,93.50
2022-09-14T15:09:22.942Z,93.10
2022-09-14T15:11:51.278Z,92.60
2022-09-14T15:14:22.035Z,92.80
2022-09-14T15:16:50.682Z,93.40
2022-09-14T15:19:17.469Z,94.00
2022-09-14T15:21:44.468Z,93.70
2022-09-14T15:24:11.742Z,93.60
2022-09-14T15:26:38.595Z,94.00
2022-09-14T15:29:05.676Z,93.40
2022-09-14T15:31:33.037Z,94.20
2022-09-14T15:34:00.018Z,93.60
2022-09-14T15:36:40.404Z,92.30
2022-09-14T15:39:10.092Z,91.70
2022-09-14T15:41:36.808Z,92.20
2022-09-14T15:44:03.937Z,92.50
2022-09-14T15:46:31.311Z,92.70
2022-09-14T15:48:59.558Z,92.60
2022-09-14T15:51:26.303Z,93.20
2022-09-14T15:53:53.169Z,93.20
2022-09-14T15:56:20.108Z,92.90
2022-09-14T15:58:48.199Z,92.50
2022-09-14T16:01:17.673Z,92.60
2022-09-14T16:03:44.547Z,91.60
2022-09-14T16:06:13.217Z,91.50
2022-09-14T16:08:40.907Z,91.80
2022-09-14T16:11:09.054Z,90.80
2022-09-14T16:13:36.470Z,91.30
2022-09-14T16:16:11.702Z,91.10
2022-09-14T16:18:38.913Z,91.20
2022-09-14T16:21:18.345Z,90.60
2022-09-14T16:23:48.343Z,88.00
2022-09-14T16:26:20.995Z,86.50
2022-09-14T16:28:50.337Z,83.60
2022-09-14T16:31:21.321Z,86.30
2022-09-14T16:33:51.352Z,87.60
2022-09-14T16:36:24.393Z,86.90
2022-09-14T16:38:51.159Z,85.20
2022-09-14T16:41:18.458Z,85.60
2022-09-14T16:43:45.359Z,85.20
2022-09-14T16:46:14.609Z,85.20
2022-09-14T16:48:46.811Z,84.40
2022-09-14T16:51:15.148Z,85.40
2022-09-14T16:53:46.953Z,85.30
2022-09-14T16:56:15.285Z,86.10
2022-09-14T16:58:42.801Z,86.00
2022-09-14T17:01:16.385Z,85.70
2022-09-14T17:03:44.821Z,87.10
2022-09-14T17:06:18.734Z,87.90
2022-09-14T17:08:46.138Z,87.50
2022-09-14T17:11:14.765Z,87.10
2022-09-14T17:13:43.377Z,87.80
2022-09-14T17:16:14.361Z,87.20
2022-09-14T17:18:42.555Z,86.90
2022-09-14T17:21:12.148Z,87.50
2022-09-14T17:23:39.418Z,87.80
2022-09-14T17:26:08.902Z,88.20
2022-09-14T17:28:36.384Z,88.60
2022-09-14T17:31:05.852Z,90.20
2022-09-14T17:33:35.427Z,90.80
2022-09-14T17:36:04.103Z,91.50
2022-09-14T17:38:35.213Z,92.00
2022-09-14T17:41:04.999Z,92.60
2022-09-14T17:43:36.143Z,93.00
2022-09-14T17:46:03.979Z,93.10
2022-09-14T17:48:35.824Z,93.40
2022-09-14T17:51:08.238Z,93.40
2022-09-14T17:53:39.356Z,93.10
2022-09-14T17:56:08.080Z,93.30
2022-09-14T17:58:35.915Z,93.30
2022-09-14T18:01:27.006Z,93.30
2022-09-14T18:03:56.799Z,93.50
2022-09-14T18:06:26.543Z,93.60
2022-09-14T18:08:55.564Z,93.60
2022-09-14T18:11:22.833Z,93.90
2022-09-14T18:13:50.441Z,93.30
2022-09-14T18:16:19.065Z,92.60
2022-09-14T18:18:46.319Z,92.90
2022-09-14T18:21:14.851Z,92.80
2022-09-14T18:23:41.705Z,93.10
2022-09-14T18:26:08.563Z,92.50
2022-09-14T18:28:36.216Z,92.40
2022-09-14T18:31:08.987Z,92.20
2022-09-14T18:33:36.554Z,92.40
2022-09-14T18:36:06.105Z,92.00
2022-09-14T18:38:33.224Z,91.40
2022-09-14T18:41:07.669Z,90.70
2022-09-14T18:43:35.163Z,90.30
2022-09-14T18:46:05.906Z,90.30
2022-09-14T18:48:33.485Z,90.80
2022-09-14T18:51:06.753Z,91.10
2022-09-14T18:53:33.665Z,91.30
2022-09-14T18:56:06.856Z,91.20
2022-09-14T18:58:35.330Z,91.10
2022-09-14T19:01:03.275Z,91.00
2022-09-14T19:03:31.331Z,90.90
2022-09-14T19:05:59.438Z,90.90
2022-09-14T19:08:28.124Z,91.10
2022-09-14T19:10:54.847Z,90.90
2022-09-14T19:13:21.562Z,91.10
2022-09-14T19:15:48.331Z,91.40
2022-09-14T19:18:15.305Z,91.90
2022-09-14T19:21:05.447Z,91.80
2022-09-14T19:23:32.022Z,92.20
2022-09-14T19:26:06.573Z,91.80
2022-09-14T19:28:34.599Z,92.20
2022-09-14T19:31:06.724Z,92.50
2022-09-14T19:33:34.149Z,92.60
2022-09-14T19:36:09.465Z,92.80
2022-09-14T19:38:37.128Z,93.00
2022-09-14T19:41:05.071Z,93.40
2022-09-14T19:43:33.428Z,93.80
2022-09-14T19:46:18.238Z,93.90
2022-09-14T19:48:45.841Z,94.40
2022-09-14T19:51:15.511Z,94.40
2022-09-14T19:53:42.999Z,94.60
2022-09-14T19:56:14.482Z,94.50
2022-09-14T19:58:44.308Z,94.40
2022-09-14T20:01:11.676Z,94.10
2022-09-14T20:03:39.710Z,93.70
2022-09-14T20:06:11.813Z,93.70
2022-09-14T20:08:39.135Z,93.60
2022-09-14T20:11:07.245Z,93.80
2022-09-14T20:13:35.059Z,93.80
2022-09-14T20:16:10.564Z,94.00
2022-09-14T20:18:37.333Z,93.70
2022-09-14T20:21:09.043Z,93.70
2022-09-14T20:23:35.876Z,93.70
2022-09-14T20:26:07.969Z,93.90
2022-09-14T20:28:35.692Z,93.90
2022-09-14T20:31:05.119Z,93.60
2022-09-14T20:33:32.481Z,94.10
2022-09-14T20:36:07.811Z,94.20
2022-09-14T20:38:35.032Z,94.30
2022-09-14T20:41:05.333Z,94.60
2022-09-14T20:43:33.724Z,94.80
2022-09-14T20:46:12.009Z,94.70
2022-09-14T20:48:39.184Z,94.70
2022-09-14T20:51:07.078Z,94.70
2022-09-14T20:53:37.053Z,94.70
2022-09-14T20:56:07.186Z,94.90
2022-09-14T20:58:34.089Z,95.00
2022-09-14T21:01:06.041Z,94.70
2022-09-14T21:03:34.057Z,94.60
2022-09-14T21:06:02.551Z,94.50
2022-09-14T21:08:31.016Z,94.40
2022-09-14T21:10:57.946Z,94.20
2022-09-14T21:13:25.055Z,94.40
2022-09-14T21:15:51.853Z,94.50
2022-09-14T21:18:20.734Z,94.20
2022-09-14T21:20:47.750Z,94.40
2022-09-14T21:23:14.488Z,94.00
2022-09-14T21:25:41.271Z,94.10
2022-09-14T21:28:07.978Z,93.70
2022-09-14T21:30:34.787Z,93.90
2022-09-14T21:33:01.475Z,93.90
2022-09-14T21:35:32.897Z,93.80
2022-09-14T21:38:00.305Z,93.80
2022-09-14T21:40:27.178Z,93.90
2022-09-14T21:42:54.396Z,93.80
2022-09-14T21:45:21.078Z,93.60
2022-09-14T21:47:49.743Z,93.70
2022-09-14T21:50:16.663Z,93.50
2022-09-14T21:52:44.052Z,93.40
2022-09-14T21:55:12.188Z,93.30
2022-09-14T21:57:39.097Z,93.30
2022-09-14T22:00:09.141Z,93.40
2022-09-14T22:02:35.824Z,93.40
2022-09-14T22:05:03.810Z,93.20
2022-09-14T22:07:31.877Z,93.10
2022-09-14T22:09:58.536Z,93.40
2022-09-14T22:12:25.348Z,93.10
2022-09-14T22:14:52.273Z,93.40
2022-09-14T22:17:18.990Z,93.30
2022-09-14T22:19:45.674Z,93.30
2022-09-14T22:22:12.776Z,93.30
2022-09-14T22:24:39.579Z,93.30
2022-09-14T22:27:10.083Z,93.10
2022-09-14T22:29:43.144Z,93.40
2022-09-14T22:32:10.818Z,93.10
2022-09-14T22:34:41.566Z,92.80
2022-09-14T22:37:08.307Z,92.60
2022-09-14T22:39:34.994Z,92.10
2022-09-14T22:42:02.505Z,92.50
2022-09-14T22:44:29.197Z,92.50
2022-09-14T22:46:55.871Z,92.50
2022-09-14T22:49:22.673Z,92.50
2022-09-14T22:51:49.334Z,92.50
2022-09-14T22:54:16.098Z,92.50
2022-09-14T22:56:42.765Z,92.10
2022-09-14T22:59:10.166Z,92.10
2022-09-14T23:01:40.796Z,92.10
2022-09-14T23:04:11.292Z,92.00
2022-09-14T23:06:43.926Z,91.70
2022-09-14T23:09:13.035Z,91.70
2022-09-14T23:11:39.779Z,91.80
2022-09-14T23:14:06.472Z,91.40
2022-09-14T23:16:33.342Z,91.00
2022-09-14T23:19:01.935Z,90.60
2022-09-14T23:21:30.962Z,90.10
2022-09-14T23:24:01.205Z,89.40
2022-09-14T23:26:28.678Z,89.20
2022-09-14T23:28:57.957Z,89.20
2022-09-14T23:31:25.421Z,88.90
2022-09-14T23:33:53.769Z,88.50
2022-09-14T23:36:22.283Z,87.50
2022-09-14T23:38:49.647Z,87.10
2022-09-14T23:41:17.682Z,86.90
2022-09-14T23:43:44.562Z,86.30
2022-09-14T23:46:12.537Z,86.40
2022-09-14T23:48:39.547Z,84.70
2022-09-14T23:51:08.336Z,84.60
2022-09-14T23:53:35.342Z,83.10
2022-09-14T23:56:03.182Z,83.10
2022-09-14T23:58:30.491Z,82.90
